Kenton, OH (43326)

2:47 AM EST on December 04, 2016 (GMT -0500)
KOHARLIN2 | | Change Station

Elev 850 ft 40.87 °N, 83.66 °W | Updated 8 seconds ago

Mostly Cloudy
Mostly Cloudy
32.6 °F
Feels Like 33 °F
N
0.0
Wind Variable Wind from West
Gusts 0.0 mph

Today
High -- | Low -- °F
--% Chance of Precip.
Yesterday
High -- | Low -- °F
Precip. -- in
Pressure 30.27 in
Visibility 10.0 miles
Clouds Mostly Cloudy 2800 ft
Windchill 33 °F
Dew Point 28 °F
Humidity 83%
Rainfall 0.00 in
Snow Depth Not available.
7:42 AM 5:07 PM
Waxing Crescent, 20% visible
METAR KEDJ 040715Z AUTO 12003KT 10SM BKN028 00/M03 A3027 RMK AO1
Pressure 30.27 in
Visibility 10.0 miles
Clouds Mostly Cloudy 2800 ft
Windchill 33 °F
Dew Point 28 °F
Humidity 83%
Rainfall 0.00 in
Snow Depth Not available.
7:42 AM 5:07 PM
Waxing Crescent, 20% visible
METAR KEDJ 040715Z AUTO 12003KT 10SM BKN028 00/M03 A3027 RMK AO1

10-Day Weather Forecast

Almanac

Astronomy

Dec. 04, 2016 Rise Set
Actual Time
Civil Twilight
Nautical Twilight
Astronomical Twilight
Moon
Length of Visible Light
Length of Day
Tomorrow will be .
, % of the Moon is Illuminated

Today's Extremes

State Highs State Lows

Community

WunderPhotos

Upload Photos

1,955,587 photos uploaded!

WunderBlog® & News

Nearby

Air Quality

  Air Quality AQ Index Pollutant
Not available.

Snow Depth

Station Depth Elevation

Earthquake Activity

City Distance Mag. Time & Date
Minimum magnitude displayed is 2.5.

Coastal Water Temperatures

Place Temperature

Stations

Nearby Weather Stations

Station Location Temp. Windchill Dew Point Humidity Wind Precip. Elev Updated Type
                   

Watches & Warnings

There are currently no watches in effect.